sensor_id;sensor_type;location;lat;lon;timestamp;pressure;altitude;pressure_sealevel;temperature;humidity
71195;BME280;58908;51.426;7.714;2022-07-05T00:00:42;100243.97;;;14.26;79.72
71195;BME280;58908;51.426;7.714;2022-07-05T00:03:08;100244.19;;;14.23;79.91
71195;BME280;58908;51.426;7.714;2022-07-05T00:05:33;100246.25;;;14.18;80.08
71195;BME280;58908;51.426;7.714;2022-07-05T00:07:58;100243.97;;;13.98;80.56
71195;BME280;58908;51.426;7.714;2022-07-05T00:10:24;100247.50;;;13.85;81.34
71195;BME280;58908;51.426;7.714;2022-07-05T00:12:49;100247.13;;;13.91;81.16
71195;BME280;58908;51.426;7.714;2022-07-05T00:15:14;100248.25;;;13.87;81.16
71195;BME280;58908;51.426;7.714;2022-07-05T00:17:39;100258.69;;;13.76;81.66
71195;BME280;58908;51.426;7.714;2022-07-05T00:20:04;100253.06;;;13.66;82.35
71195;BME280;58908;51.426;7.714;2022-07-05T00:22:30;100251.31;;;13.53;82.58
71195;BME280;58908;51.426;7.714;2022-07-05T00:24:55;100250.06;;;13.44;82.80
71195;BME280;58908;51.426;7.714;2022-07-05T00:27:20;100248.34;;;13.43;82.96
71195;BME280;58908;51.426;7.714;2022-07-05T00:29:45;100255.38;;;13.44;82.58
71195;BME280;58908;51.426;7.714;2022-07-05T00:32:10;100259.41;;;13.36;83.45
71195;BME280;58908;51.426;7.714;2022-07-05T00:34:36;100257.34;;;13.41;83.19
71195;BME280;58908;51.426;7.714;2022-07-05T00:37:01;100262.53;;;13.42;83.35
71195;BME280;58908;51.426;7.714;2022-07-05T00:39:26;100254.22;;;13.34;83.43
71195;BME280;58908;51.426;7.714;2022-07-05T00:41:52;100257.31;;;13.27;83.73
71195;BME280;58908;51.426;7.714;2022-07-05T00:44:26;100258.38;;;13.24;84.34
71195;BME280;58908;51.426;7.714;2022-07-05T00:46:52;100253.81;;;13.26;83.48
71195;BME280;58908;51.426;7.714;2022-07-05T00:49:17;100261.47;;;13.17;83.52
71195;BME280;58908;51.426;7.714;2022-07-05T00:51:42;100263.34;;;13.15;83.96
71195;BME280;58908;51.426;7.714;2022-07-05T00:54:07;100256.59;;;13.09;84.47
71195;BME280;58908;51.426;7.714;2022-07-05T00:56:33;100253.19;;;13.07;84.22
71195;BME280;58908;51.426;7.714;2022-07-05T00:58:58;100255.03;;;13.07;84.51
71195;BME280;58908;51.426;7.714;2022-07-05T01:01:24;100263.22;;;13.02;84.75
71195;BME280;58908;51.426;7.714;2022-07-05T01:03:50;100250.66;;;13.06;84.56
71195;BME280;58908;51.426;7.714;2022-07-05T01:06:16;100255.84;;;13.07;84.67
71195;BME280;58908;51.426;7.714;2022-07-05T01:08:42;100257.19;;;13.00;84.24
71195;BME280;58908;51.426;7.714;2022-07-05T01:11:09;100248.38;;;13.00;84.22
71195;BME280;58908;51.426;7.714;2022-07-05T01:13:35;100247.88;;;12.93;84.65
71195;BME280;58908;51.426;7.714;2022-07-05T01:16:01;100248.97;;;12.89;84.64
71195;BME280;58908;51.426;7.714;2022-07-05T01:18:26;100254.09;;;12.92;85.03
71195;BME280;58908;51.426;7.714;2022-07-05T01:20:52;100258.97;;;12.84;84.83
71195;BME280;58908;51.426;7.714;2022-07-05T01:23:18;100257.00;;;12.88;84.38
71195;BME280;58908;51.426;7.714;2022-07-05T01:25:43;100250.00;;;12.87;84.62
71195;BME280;58908;51.426;7.714;2022-07-05T01:28:09;100253.22;;;12.92;84.86
71195;BME280;58908;51.426;7.714;2022-07-05T01:30:35;100255.03;;;12.91;84.75
71195;BME280;58908;51.426;7.714;2022-07-05T01:33:00;100254.63;;;12.83;84.93
71195;BME280;58908;51.426;7.714;2022-07-05T01:35:26;100257.94;;;12.87;85.54
71195;BME280;58908;51.426;7.714;2022-07-05T01:37:51;100261.25;;;12.61;86.42
71195;BME280;58908;51.426;7.714;2022-07-05T01:40:17;100256.13;;;12.58;86.37
71195;BME280;58908;51.426;7.714;2022-07-05T01:42:43;100247.94;;;12.47;87.46
71195;BME280;58908;51.426;7.714;2022-07-05T01:45:08;100255.16;;;12.59;87.21
71195;BME280;58908;51.426;7.714;2022-07-05T01:47:38;100262.09;;;12.61;86.35
71195;BME280;58908;51.426;7.714;2022-07-05T01:50:05;100260.56;;;12.73;85.57
71195;BME280;58908;51.426;7.714;2022-07-05T01:52:31;100270.03;;;12.61;86.09
71195;BME280;58908;51.426;7.714;2022-07-05T01:55:00;100269.28;;;12.44;86.88
71195;BME280;58908;51.426;7.714;2022-07-05T01:57:26;100271.25;;;12.40;87.50
71195;BME280;58908;51.426;7.714;2022-07-05T01:59:51;100269.63;;;12.38;88.00
71195;BME280;58908;51.426;7.714;2022-07-05T02:02:16;100268.59;;;12.40;88.00
71195;BME280;58908;51.426;7.714;2022-07-05T02:04:42;100265.59;;;12.62;87.37
71195;BME280;58908;51.426;7.714;2022-07-05T02:07:07;100268.22;;;12.77;87.50
71195;BME280;58908;51.426;7.714;2022-07-05T02:09:33;100266.06;;;12.84;87.35
71195;BME280;58908;51.426;7.714;2022-07-05T02:11:58;100267.31;;;12.92;86.91
71195;BME280;58908;51.426;7.714;2022-07-05T02:14:23;100275.59;;;13.02;85.59
71195;BME280;58908;51.426;7.714;2022-07-05T02:16:48;100273.56;;;13.07;85.27
71195;BME280;58908;51.426;7.714;2022-07-05T02:19:13;100271.75;;;13.07;85.45
71195;BME280;58908;51.426;7.714;2022-07-05T02:21:38;100272.59;;;12.78;86.12
71195;BME280;58908;51.426;7.714;2022-07-05T02:24:04;100262.47;;;12.85;86.20
71195;BME280;58908;51.426;7.714;2022-07-05T02:26:29;100269.22;;;12.90;86.12
71195;BME280;58908;51.426;7.714;2022-07-05T02:28:54;100273.34;;;12.96;86.42
71195;BME280;58908;51.426;7.714;2022-07-05T02:31:19;100268.59;;;13.01;86.16
71195;BME280;58908;51.426;7.714;2022-07-05T02:33:45;100265.50;;;13.08;85.90
71195;BME280;58908;51.426;7.714;2022-07-05T02:36:11;100267.19;;;13.09;85.74
71195;BME280;58908;51.426;7.714;2022-07-05T02:38:36;100265.50;;;12.93;86.54
71195;BME280;58908;51.426;7.714;2022-07-05T02:41:05;100264.00;;;12.89;86.18
71195;BME280;58908;51.426;7.714;2022-07-05T02:43:31;100272.72;;;12.75;87.32
71195;BME280;58908;51.426;7.714;2022-07-05T02:45:56;100268.66;;;12.70;87.34
71195;BME280;58908;51.426;7.714;2022-07-05T02:48:21;100267.19;;;12.64;87.99
71195;BME280;58908;51.426;7.714;2022-07-05T02:50:46;100268.41;;;12.59;88.42
71195;BME280;58908;51.426;7.714;2022-07-05T02:53:12;100264.66;;;12.63;87.88
71195;BME280;58908;51.426;7.714;2022-07-05T02:55:37;100268.16;;;12.63;88.05
71195;BME280;58908;51.426;7.714;2022-07-05T02:58:03;100259.22;;;12.80;87.03
71195;BME280;58908;51.426;7.714;2022-07-05T03:00:28;100259.22;;;12.80;86.70
71195;BME280;58908;51.426;7.714;2022-07-05T03:02:53;100261.38;;;12.73;86.82
71195;BME280;58908;51.426;7.714;2022-07-05T03:05:18;100271.28;;;12.70;87.25
71195;BME280;58908;51.426;7.714;2022-07-05T03:07:43;100267.81;;;12.69;87.50
71195;BME280;58908;51.426;7.714;2022-07-05T03:10:08;100271.72;;;12.78;86.60
71195;BME280;58908;51.426;7.714;2022-07-05T03:12:33;100269.63;;;12.83;87.01
71195;BME280;58908;51.426;7.714;2022-07-05T03:14:59;100270.16;;;12.89;86.19
71195;BME280;58908;51.426;7.714;2022-07-05T03:17:24;100274.50;;;12.90;86.50
71195;BME280;58908;51.426;7.714;2022-07-05T03:19:49;100268.13;;;12.94;87.04
71195;BME280;58908;51.426;7.714;2022-07-05T03:22:14;100270.69;;;12.96;86.75
71195;BME280;58908;51.426;7.714;2022-07-05T03:24:39;100268.69;;;12.99;87.13
71195;BME280;58908;51.426;7.714;2022-07-05T03:27:04;100275.59;;;13.02;86.87
71195;BME280;58908;51.426;7.714;2022-07-05T03:29:30;100277.75;;;12.95;86.72
71195;BME280;58908;51.426;7.714;2022-07-05T03:31:55;100284.16;;;13.07;86.36
71195;BME280;58908;51.426;7.714;2022-07-05T03:34:20;100286.53;;;13.11;85.90
71195;BME280;58908;51.426;7.714;2022-07-05T03:36:45;100288.25;;;13.12;85.84
71195;BME280;58908;51.426;7.714;2022-07-05T03:39:10;100285.00;;;13.07;86.35
71195;BME280;58908;51.426;7.714;2022-07-05T03:41:35;100284.72;;;13.12;86.17
71195;BME280;58908;51.426;7.714;2022-07-05T03:44:01;100282.66;;;13.17;86.01
71195;BME280;58908;51.426;7.714;2022-07-05T03:46:26;100286.34;;;13.14;86.02
71195;BME280;58908;51.426;7.714;2022-07-05T03:48:51;100289.19;;;13.11;85.81
71195;BME280;58908;51.426;7.714;2022-07-05T03:51:17;100278.63;;;13.25;85.26
71195;BME280;58908;51.426;7.714;2022-07-05T03:53:42;100286.09;;;13.33;85.00
71195;BME280;58908;51.426;7.714;2022-07-05T03:56:07;100286.09;;;13.33;85.09
71195;BME280;58908;51.426;7.714;2022-07-05T03:58:32;100286.53;;;13.11;86.12
71195;BME280;58908;51.426;7.714;2022-07-05T04:00:57;100285.81;;;13.23;85.52
71195;BME280;58908;51.426;7.714;2022-07-05T04:03:23;100285.81;;;13.23;85.28
71195;BME280;58908;51.426;7.714;2022-07-05T04:05:48;100290.88;;;13.12;85.65
71195;BME280;58908;51.426;7.714;2022-07-05T04:08:13;100289.94;;;13.13;86.55
71195;BME280;58908;51.426;7.714;2022-07-05T04:10:38;100287.03;;;13.18;86.05
71195;BME280;58908;51.426;7.714;2022-07-05T04:13:03;100287.25;;;13.29;85.83
71195;BME280;58908;51.426;7.714;2022-07-05T04:15:28;100295.66;;;13.35;85.55
71195;BME280;58908;51.426;7.714;2022-07-05T04:17:54;100296.72;;;13.47;85.49
71195;BME280;58908;51.426;7.714;2022-07-05T04:20:20;100301.94;;;13.62;84.58
71195;BME280;58908;51.426;7.714;2022-07-05T04:22:46;100298.00;;;13.69;83.91
71195;BME280;58908;51.426;7.714;2022-07-05T04:25:12;100308.19;;;13.61;85.14
71195;BME280;58908;51.426;7.714;2022-07-05T04:27:47;100309.41;;;13.42;86.42
71195;BME280;58908;51.426;7.714;2022-07-05T04:30:13;100316.53;;;13.26;86.87
71195;BME280;58908;51.426;7.714;2022-07-05T04:32:38;100310.22;;;12.99;88.47
71195;BME280;58908;51.426;7.714;2022-07-05T04:35:03;100304.41;;;12.92;88.69
71195;BME280;58908;51.426;7.714;2022-07-05T04:37:28;100320.31;;;13.22;87.36
71195;BME280;58908;51.426;7.714;2022-07-05T04:39:54;100318.31;;;13.41;85.63
71195;BME280;58908;51.426;7.714;2022-07-05T04:42:19;100317.25;;;13.43;86.48
71195;BME280;58908;51.426;7.714;2022-07-05T04:44:44;100309.88;;;13.48;86.25
71195;BME280;58908;51.426;7.714;2022-07-05T04:47:09;100313.22;;;13.52;85.93
71195;BME280;58908;51.426;7.714;2022-07-05T04:49:34;100309.69;;;13.65;85.23
71195;BME280;58908;51.426;7.714;2022-07-05T04:51:59;100316.81;;;13.79;85.40
71195;BME280;58908;51.426;7.714;2022-07-05T04:54:25;100313.69;;;13.86;85.12
71195;BME280;58908;51.426;7.714;2022-07-05T04:56:50;100311.50;;;13.93;85.57
71195;BME280;58908;51.426;7.714;2022-07-05T04:59:15;100315.03;;;14.07;84.45
71195;BME280;58908;51.426;7.714;2022-07-05T05:01:40;100312.47;;;14.34;83.33
71195;BME280;58908;51.426;7.714;2022-07-05T05:04:05;100315.25;;;14.58;83.40
71195;BME280;58908;51.426;7.714;2022-07-05T05:06:30;100307.16;;;14.74;83.72
71195;BME280;58908;51.426;7.714;2022-07-05T05:08:56;100314.47;;;14.70;83.98
71195;BME280;58908;51.426;7.714;2022-07-05T05:11:21;100318.03;;;14.83;82.18
71195;BME280;58908;51.426;7.714;2022-07-05T05:13:46;100319.38;;;15.03;80.70
71195;BME280;58908;51.426;7.714;2022-07-05T05:16:12;100313.59;;;15.23;80.28
71195;BME280;58908;51.426;7.714;2022-07-05T05:18:37;100307.47;;;15.35;80.27
71195;BME280;58908;51.426;7.714;2022-07-05T05:21:02;100307.47;;;15.35;78.07
71195;BME280;58908;51.426;7.714;2022-07-05T05:23:28;100307.78;;;15.43;76.51
71195;BME280;58908;51.426;7.714;2022-07-05T05:25:53;100312.50;;;15.64;76.60
71195;BME280;58908;51.426;7.714;2022-07-05T05:28:18;100311.00;;;15.48;78.26
71195;BME280;58908;51.426;7.714;2022-07-05T05:30:43;100315.56;;;15.58;78.29
71195;BME280;58908;51.426;7.714;2022-07-05T05:33:08;100311.09;;;15.71;77.84
71195;BME280;58908;51.426;7.714;2022-07-05T05:35:34;100322.19;;;16.03;76.60
71195;BME280;58908;51.426;7.714;2022-07-05T05:37:59;100315.44;;;16.35;75.92
71195;BME280;58908;51.426;7.714;2022-07-05T05:40:24;100319.59;;;16.39;73.59
71195;BME280;58908;51.426;7.714;2022-07-05T05:42:50;100332.81;;;16.76;72.87
71195;BME280;58908;51.426;7.714;2022-07-05T05:45:16;100324.25;;;17.07;72.69
71195;BME280;58908;51.426;7.714;2022-07-05T05:47:43;100331.66;;;16.91;74.20
71195;BME280;58908;51.426;7.714;2022-07-05T05:50:08;100332.09;;;16.62;75.69
71195;BME280;58908;51.426;7.714;2022-07-05T05:52:33;100335.69;;;16.37;75.79
71195;BME280;58908;51.426;7.714;2022-07-05T05:54:58;100333.56;;;16.42;76.74
71195;BME280;58908;51.426;7.714;2022-07-05T05:57:23;100329.50;;;16.24;77.60
71195;BME280;58908;51.426;7.714;2022-07-05T05:59:49;100334.34;;;15.94;79.32
71195;BME280;58908;51.426;7.714;2022-07-05T06:02:14;100334.53;;;16.04;79.73
71195;BME280;58908;51.426;7.714;2022-07-05T06:04:39;100336.31;;;16.41;77.47
71195;BME280;58908;51.426;7.714;2022-07-05T06:07:04;100350.06;;;16.10;77.63
71195;BME280;58908;51.426;7.714;2022-07-05T06:09:29;100344.88;;;15.83;78.79
71195;BME280;58908;51.426;7.714;2022-07-05T06:11:54;100346.66;;;15.70;79.68
71195;BME280;58908;51.426;7.714;2022-07-05T06:14:19;100354.06;;;15.40;80.39
71195;BME280;58908;51.426;7.714;2022-07-05T06:16:44;100357.13;;;15.34;81.00
71195;BME280;58908;51.426;7.714;2022-07-05T06:19:10;100359.00;;;15.59;80.13
71195;BME280;58908;51.426;7.714;2022-07-05T06:21:35;100354.53;;;16.09;78.60
71195;BME280;58908;51.426;7.714;2022-07-05T06:24:00;100367.84;;;16.47;76.47
71195;BME280;58908;51.426;7.714;2022-07-05T06:26:25;100368.03;;;16.31;76.40
71195;BME280;58908;51.426;7.714;2022-07-05T06:28:50;100359.56;;;16.75;74.03
71195;BME280;58908;51.426;7.714;2022-07-05T06:31:15;100356.41;;;17.16;72.57
71195;BME280;58908;51.426;7.714;2022-07-05T06:33:40;100356.91;;;17.45;70.39
71195;BME280;58908;51.426;7.714;2022-07-05T06:36:06;100359.47;;;16.64;71.19
71195;BME280;58908;51.426;7.714;2022-07-05T06:38:31;100369.53;;;17.88;67.06
71195;BME280;58908;51.426;7.714;2022-07-05T06:40:56;100366.81;;;17.19;69.11
71195;BME280;58908;51.426;7.714;2022-07-05T06:43:22;100370.69;;;17.15;69.11
71195;BME280;58908;51.426;7.714;2022-07-05T06:45:47;100374.03;;;17.30;67.58
71195;BME280;58908;51.426;7.714;2022-07-05T06:48:13;100372.28;;;17.76;66.44
71195;BME280;58908;51.426;7.714;2022-07-05T06:50:39;100372.56;;;20.29;59.47
71195;BME280;58908;51.426;7.714;2022-07-05T06:53:05;100372.38;;;20.51;56.01
71195;BME280;58908;51.426;7.714;2022-07-05T06:55:30;100371.66;;;21.66;53.24
71195;BME280;58908;51.426;7.714;2022-07-05T06:57:59;100364.09;;;22.07;50.84
71195;BME280;58908;51.426;7.714;2022-07-05T07:00:24;100363.50;;;23.13;47.14
71195;BME280;58908;51.426;7.714;2022-07-05T07:02:50;100372.50;;;22.77;48.51
71195;BME280;58908;51.426;7.714;2022-07-05T07:05:15;100366.63;;;20.85;50.61
71195;BME280;58908;51.426;7.714;2022-07-05T07:07:40;100361.69;;;23.04;46.24
71195;BME280;58908;51.426;7.714;2022-07-05T07:10:24;100371.91;;;19.75;53.05
71195;BME280;58908;51.426;7.714;2022-07-05T07:12:49;100368.00;;;22.68;46.68
71195;BME280;58908;51.426;7.714;2022-07-05T07:15:14;100371.44;;;20.61;51.57
71195;BME280;58908;51.426;7.714;2022-07-05T07:17:39;100368.81;;;21.39;49.97
71195;BME280;58908;51.426;7.714;2022-07-05T07:20:04;100369.13;;;21.83;49.75
71195;BME280;58908;51.426;7.714;2022-07-05T07:22:30;100368.06;;;23.03;46.58
71195;BME280;58908;51.426;7.714;2022-07-05T07:24:55;100364.81;;;24.73;41.85
71195;BME280;58908;51.426;7.714;2022-07-05T07:27:20;100375.75;;;22.71;46.62
71195;BME280;58908;51.426;7.714;2022-07-05T07:29:45;100365.44;;;24.16;45.00
71195;BME280;58908;51.426;7.714;2022-07-05T07:32:10;100371.59;;;23.83;43.90
71195;BME280;58908;51.426;7.714;2022-07-05T07:34:36;100371.78;;;23.02;45.73
71195;BME280;58908;51.426;7.714;2022-07-05T07:37:02;100369.22;;;24.23;45.56
71195;BME280;58908;51.426;7.714;2022-07-05T07:39:27;100373.22;;;25.11;42.50
71195;BME280;58908;51.426;7.714;2022-07-05T07:41:52;100370.00;;;24.66;43.53
71195;BME280;58908;51.426;7.714;2022-07-05T07:44:18;100367.41;;;24.57;43.60
71195;BME280;58908;51.426;7.714;2022-07-05T07:46:43;100368.72;;;25.27;41.06
71195;BME280;58908;51.426;7.714;2022-07-05T07:49:08;100377.44;;;24.21;42.27
71195;BME280;58908;51.426;7.714;2022-07-05T07:51:34;100361.47;;;25.36;40.43
71195;BME280;58908;51.426;7.714;2022-07-05T07:54:00;100366.38;;;25.56;40.31
71195;BME280;58908;51.426;7.714;2022-07-05T07:56:25;100365.03;;;25.52;39.62
71195;BME280;58908;51.426;7.714;2022-07-05T07:58:50;100362.13;;;25.30;41.10
71195;BME280;58908;51.426;7.714;2022-07-05T08:01:15;100372.66;;;25.81;39.19
71195;BME280;58908;51.426;7.714;2022-07-05T08:03:41;100367.25;;;25.57;40.65
71195;BME280;58908;51.426;7.714;2022-07-05T08:06:07;100366.59;;;26.03;40.05
71195;BME280;58908;51.426;7.714;2022-07-05T08:08:33;100374.41;;;26.60;36.79
71195;BME280;58908;51.426;7.714;2022-07-05T08:10:58;100368.06;;;26.13;38.17
71195;BME280;58908;51.426;7.714;2022-07-05T08:13:24;100361.47;;;25.76;39.08
71195;BME280;58908;51.426;7.714;2022-07-05T08:15:49;100373.63;;;24.90;39.20
71195;BME280;58908;51.426;7.714;2022-07-05T08:18:14;100368.19;;;23.98;41.75
71195;BME280;58908;51.426;7.714;2022-07-05T08:20:58;100363.38;;;25.99;37.99
71195;BME280;58908;51.426;7.714;2022-07-05T08:23:42;100368.50;;;25.21;40.42
71195;BME280;58908;51.426;7.714;2022-07-05T08:26:07;100370.00;;;25.89;37.84
71195;BME280;58908;51.426;7.714;2022-07-05T08:28:32;100367.44;;;25.06;38.38
71195;BME280;58908;51.426;7.714;2022-07-05T08:30:57;100365.38;;;26.84;35.64
71195;BME280;58908;51.426;7.714;2022-07-05T08:33:23;100364.09;;;27.02;35.00
71195;BME280;58908;51.426;7.714;2022-07-05T08:35:49;100363.22;;;26.01;37.21
71195;BME280;58908;51.426;7.714;2022-07-05T08:38:14;100364.09;;;24.71;38.10
71195;BME280;58908;51.426;7.714;2022-07-05T08:40:40;100355.41;;;23.40;39.23
71195;BME280;58908;51.426;7.714;2022-07-05T08:43:08;100369.66;;;22.78;42.20
71195;BME280;58908;51.426;7.714;2022-07-05T08:45:34;100364.72;;;22.74;43.00
71195;BME280;58908;51.426;7.714;2022-07-05T08:48:00;100371.31;;;22.07;45.03
71195;BME280;58908;51.426;7.714;2022-07-05T08:50:26;100363.31;;;21.69;46.54
71195;BME280;58908;51.426;7.714;2022-07-05T08:52:51;100361.00;;;21.17;47.05
71195;BME280;58908;51.426;7.714;2022-07-05T08:55:17;100363.81;;;22.56;44.42
71195;BME280;58908;51.426;7.714;2022-07-05T08:57:42;100359.50;;;24.30;38.51
71195;BME280;58908;51.426;7.714;2022-07-05T09:00:07;100355.91;;;25.29;37.08
71195;BME280;58908;51.426;7.714;2022-07-05T09:02:33;100353.75;;;27.36;32.60
71195;BME280;58908;51.426;7.714;2022-07-05T09:04:58;100364.69;;;25.79;35.98
71195;BME280;58908;51.426;7.714;2022-07-05T09:07:24;100367.09;;;23.48;41.02
71195;BME280;58908;51.426;7.714;2022-07-05T09:09:51;100369.81;;;21.28;46.67
71195;BME280;58908;51.426;7.714;2022-07-05T09:12:16;100376.16;;;21.27;48.20
71195;BME280;58908;51.426;7.714;2022-07-05T09:14:41;100380.91;;;20.35;47.71
71195;BME280;58908;51.426;7.714;2022-07-05T09:17:07;100383.22;;;19.78;49.99
71195;BME280;58908;51.426;7.714;2022-07-05T09:19:32;100379.13;;;20.45;49.13
71195;BME280;58908;51.426;7.714;2022-07-05T09:22:03;100377.41;;;20.74;48.45
71195;BME280;58908;51.426;7.714;2022-07-05T09:24:29;100380.91;;;20.95;46.14
71195;BME280;58908;51.426;7.714;2022-07-05T09:27:01;100370.75;;;23.82;40.39
71195;BME280;58908;51.426;7.714;2022-07-05T09:29:27;100382.81;;;21.71;44.21
71195;BME280;58908;51.426;7.714;2022-07-05T09:31:52;100371.50;;;24.69;38.14
71195;BME280;58908;51.426;7.714;2022-07-05T09:34:21;100367.41;;;26.11;34.29
71195;BME280;58908;51.426;7.714;2022-07-05T09:36:59;100368.94;;;24.59;36.65
71195;BME280;58908;51.426;7.714;2022-07-05T09:42:10;100368.09;;;24.59;38.59
71195;BME280;58908;51.426;7.714;2022-07-05T09:44:37;100366.31;;;24.16;37.29
71195;BME280;58908;51.426;7.714;2022-07-05T09:47:12;100366.25;;;22.76;41.02
71195;BME280;58908;51.426;7.714;2022-07-05T09:49:38;100372.22;;;21.79;42.89
71195;BME280;58908;51.426;7.714;2022-07-05T09:52:03;100377.56;;;22.53;41.48
71195;BME280;58908;51.426;7.714;2022-07-05T09:54:28;100364.34;;;24.01;38.45
71195;BME280;58908;51.426;7.714;2022-07-05T09:56:54;100366.63;;;23.53;38.88
71195;BME280;58908;51.426;7.714;2022-07-05T09:59:19;100373.19;;;23.06;40.83
71195;BME280;58908;51.426;7.714;2022-07-05T10:01:45;100369.47;;;24.12;38.72
71195;BME280;58908;51.426;7.714;2022-07-05T10:04:11;100372.59;;;24.25;37.74
71195;BME280;58908;51.426;7.714;2022-07-05T10:06:36;100356.09;;;25.60;36.73
71195;BME280;58908;51.426;7.714;2022-07-05T10:09:01;100362.25;;;24.71;36.96
71195;BME280;58908;51.426;7.714;2022-07-05T10:11:27;100359.75;;;22.42;41.88
71195;BME280;58908;51.426;7.714;2022-07-05T10:13:52;100369.78;;;21.95;43.49
71195;BME280;58908;51.426;7.714;2022-07-05T10:16:19;100366.97;;;23.93;40.84
71195;BME280;58908;51.426;7.714;2022-07-05T10:18:50;100367.47;;;25.14;34.78
71195;BME280;58908;51.426;7.714;2022-07-05T10:21:16;100359.97;;;25.57;35.22
71195;BME280;58908;51.426;7.714;2022-07-05T10:23:43;100365.16;;;26.31;33.93
71195;BME280;58908;51.426;7.714;2022-07-05T10:26:08;100358.66;;;25.04;34.67
71195;BME280;58908;51.426;7.714;2022-07-05T10:28:34;100360.81;;;24.84;36.53
71195;BME280;58908;51.426;7.714;2022-07-05T10:31:00;100359.09;;;23.82;38.29
71195;BME280;58908;51.426;7.714;2022-07-05T10:33:26;100369.59;;;22.15;42.03
71195;BME280;58908;51.426;7.714;2022-07-05T10:35:52;100367.13;;;21.66;44.15
71195;BME280;58908;51.426;7.714;2022-07-05T10:38:17;100371.78;;;21.45;44.96
71195;BME280;58908;51.426;7.714;2022-07-05T10:40:46;100373.16;;;21.49;45.09
71195;BME280;58908;51.426;7.714;2022-07-05T10:43:12;100373.47;;;21.56;45.16
71195;BME280;58908;51.426;7.714;2022-07-05T10:45:47;100368.81;;;22.78;42.33
71195;BME280;58908;51.426;7.714;2022-07-05T10:48:13;100367.63;;;23.87;40.57
71195;BME280;58908;51.426;7.714;2022-07-05T10:53:07;100366.63;;;23.88;39.31
71195;BME280;58908;51.426;7.714;2022-07-05T10:55:32;100366.53;;;23.62;40.17
71195;BME280;58908;51.426;7.714;2022-07-05T11:03:45;100360.53;;;24.62;38.84
71195;BME280;58908;51.426;7.714;2022-07-05T11:11:23;100359.22;;;23.72;38.32
71195;BME280;58908;51.426;7.714;2022-07-05T11:13:49;100351.81;;;24.17;37.17
71195;BME280;58908;51.426;7.714;2022-07-05T11:16:31;100349.22;;;25.00;35.94
71195;BME280;58908;51.426;7.714;2022-07-05T11:19:09;100346.91;;;23.17;40.05
71195;BME280;58908;51.426;7.714;2022-07-05T11:21:36;100345.94;;;23.79;39.90
71195;BME280;58908;51.426;7.714;2022-07-05T11:24:18;100351.47;;;23.34;39.58
71195;BME280;58908;51.426;7.714;2022-07-05T11:26:43;100347.22;;;22.87;40.09
71195;BME280;58908;51.426;7.714;2022-07-05T11:32:05;100345.72;;;22.75;40.28
71195;BME280;58908;51.426;7.714;2022-07-05T11:34:33;100347.59;;;22.38;42.18
71195;BME280;58908;51.426;7.714;2022-07-05T11:39:42;100343.75;;;22.77;39.58
71195;BME280;58908;51.426;7.714;2022-07-05T11:42:08;100344.94;;;22.29;40.73
71195;BME280;58908;51.426;7.714;2022-07-05T11:44:33;100346.72;;;23.01;38.54
71195;BME280;58908;51.426;7.714;2022-07-05T11:46:58;100341.84;;;22.60;37.38
71195;BME280;58908;51.426;7.714;2022-07-05T11:49:24;100339.28;;;23.13;37.57
71195;BME280;58908;51.426;7.714;2022-07-05T11:51:53;100337.16;;;23.16;37.48
71195;BME280;58908;51.426;7.714;2022-07-05T11:54:22;100332.47;;;23.79;37.59
71195;BME280;58908;51.426;7.714;2022-07-05T11:56:47;100331.41;;;24.15;35.84
71195;BME280;58908;51.426;7.714;2022-07-05T11:59:20;100321.19;;;23.05;38.29
71195;BME280;58908;51.426;7.714;2022-07-05T12:01:46;100335.19;;;22.28;40.39
71195;BME280;58908;51.426;7.714;2022-07-05T12:04:11;100326.06;;;22.12;39.64
71195;BME280;58908;51.426;7.714;2022-07-05T12:06:42;100333.63;;;21.80;40.02
71195;BME280;58908;51.426;7.714;2022-07-05T12:09:08;100331.50;;;21.74;40.43
71195;BME280;58908;51.426;7.714;2022-07-05T12:11:33;100331.97;;;22.51;39.61
71195;BME280;58908;51.426;7.714;2022-07-05T12:14:23;100325.81;;;22.68;37.12
71195;BME280;58908;51.426;7.714;2022-07-05T12:16:49;100326.22;;;22.73;37.17
71195;BME280;58908;51.426;7.714;2022-07-05T12:19:24;100318.91;;;22.66;36.37
71195;BME280;58908;51.426;7.714;2022-07-05T12:21:53;100312.97;;;23.07;37.49
71195;BME280;58908;51.426;7.714;2022-07-05T12:24:19;100314.88;;;22.97;37.30
71195;BME280;58908;51.426;7.714;2022-07-05T12:26:45;100322.38;;;22.76;38.48
71195;BME280;58908;51.426;7.714;2022-07-05T12:29:10;100320.06;;;22.81;37.56
71195;BME280;58908;51.426;7.714;2022-07-05T12:31:35;100317.47;;;22.89;37.44
71195;BME280;58908;51.426;7.714;2022-07-05T12:34:15;100308.44;;;23.42;36.21
71195;BME280;58908;51.426;7.714;2022-07-05T12:36:44;100306.59;;;24.03;34.08
71195;BME280;58908;51.426;7.714;2022-07-05T12:39:09;100315.31;;;23.80;34.24
71195;BME280;58908;51.426;7.714;2022-07-05T12:41:34;100309.97;;;22.65;35.79
71195;BME280;58908;51.426;7.714;2022-07-05T12:44:06;100310.75;;;22.75;37.54
71195;BME280;58908;51.426;7.714;2022-07-05T12:46:39;100315.63;;;22.72;38.92
71195;BME280;58908;51.426;7.714;2022-07-05T12:49:04;100317.50;;;23.06;36.35
71195;BME280;58908;51.426;7.714;2022-07-05T12:51:36;100316.94;;;23.03;35.94
71195;BME280;58908;51.426;7.714;2022-07-05T12:54:03;100319.47;;;22.87;34.70
71195;BME280;58908;51.426;7.714;2022-07-05T12:56:51;100315.22;;;22.30;34.62
71195;BME280;58908;51.426;7.714;2022-07-05T12:59:35;100326.91;;;22.75;36.14
71195;BME280;58908;51.426;7.714;2022-07-05T13:02:01;100323.47;;;22.56;37.50
71195;BME280;58908;51.426;7.714;2022-07-05T13:04:26;100324.50;;;22.72;37.47
71195;BME280;58908;51.426;7.714;2022-07-05T13:12:16;100325.09;;;22.93;36.27